createdAt,value
2018-11-20T00:00:52.558Z,9.33
2018-11-20T00:03:19.551Z,8.60
2018-11-20T00:05:55.883Z,7.77
2018-11-20T00:08:14.555Z,8.00
2018-11-20T00:10:47.684Z,8.20
2018-11-20T00:13:06.143Z,7.10
2018-11-20T00:15:33.188Z,7.03
2018-11-20T00:17:45.210Z,7.10
2018-11-20T00:20:16.431Z,8.05
2018-11-20T00:22:39.674Z,7.90
2018-11-20T00:25:16.332Z,8.33
2018-11-20T00:27:46.762Z,7.90
2018-11-20T00:30:20.109Z,8.37
2018-11-20T00:32:42.918Z,7.17
2018-11-20T00:35:10.987Z,8.20
2018-11-20T00:37:41.281Z,8.45
2018-11-20T00:40:08.521Z,8.30
2018-11-20T00:42:35.043Z,8.65
2018-11-20T00:44:59.391Z,8.47
2018-11-20T00:47:26.368Z,9.70
2018-11-20T00:49:49.486Z,9.40
2018-11-20T00:52:12.654Z,8.93
2018-11-20T00:54:36.971Z,10.00
2018-11-20T00:57:01.278Z,9.67
2018-11-20T00:59:30.470Z,9.90
2018-11-20T01:02:07.023Z,10.00
2018-11-20T01:04:31.386Z,10.48
2018-11-20T01:07:04.716Z,10.07
2018-11-20T01:09:22.872Z,9.63
2018-11-20T01:11:59.408Z,10.65
2018-11-20T01:14:22.604Z,10.07
2018-11-20T01:16:43.620Z,10.18
2018-11-20T01:19:19.874Z,10.80
2018-11-20T01:21:42.788Z,9.87
2018-11-20T01:24:02.114Z,10.17
2018-11-20T01:26:14.135Z,11.07
2018-11-20T01:28:32.941Z,11.08
2018-11-20T01:31:00.446Z,12.23
2018-11-20T01:33:24.761Z,11.50
2018-11-20T01:35:47.578Z,11.97
2018-11-20T01:38:10.794Z,9.93
2018-11-20T01:40:27.183Z,11.00
2018-11-20T01:42:58.220Z,11.75
2018-11-20T01:45:16.137Z,11.00
2018-11-20T01:47:39.275Z,11.53
2018-11-20T01:50:03.604Z,12.40
2018-11-20T01:52:25.881Z,12.85
2018-11-20T01:54:50.227Z,12.03
2018-11-20T01:57:15.182Z,12.00
2018-11-20T01:59:54.367Z,11.93
2018-11-20T02:02:21.385Z,11.43
2018-11-20T02:04:46.355Z,12.20
2018-11-20T02:07:10.895Z,12.40
2018-11-20T02:09:41.189Z,12.97
2018-11-20T02:12:17.875Z,12.23
2018-11-20T02:14:47.005Z,12.97
2018-11-20T02:17:15.367Z,12.78
2018-11-20T02:19:44.138Z,12.03
2018-11-20T02:22:00.460Z,11.68
2018-11-20T02:24:20.750Z,11.97
2018-11-20T02:26:42.259Z,11.93
2018-11-20T02:29:05.205Z,12.00
2018-11-20T02:31:41.590Z,12.30
2018-11-20T02:33:58.384Z,11.67
2018-11-20T02:36:17.512Z,12.13
2018-11-20T02:38:37.860Z,11.50
2018-11-20T02:41:02.203Z,11.87
2018-11-20T02:43:24.917Z,12.53
2018-11-20T02:45:48.154Z,11.20
2018-11-20T02:48:10.076Z,11.23
2018-11-20T02:50:40.578Z,10.90
2018-11-20T02:53:20.111Z,10.78
2018-11-20T02:55:43.147Z,10.80
2018-11-20T02:58:16.794Z,11.20
2018-11-20T03:00:40.673Z,12.00
2018-11-20T03:03:18.017Z,12.00
2018-11-20T03:05:32.161Z,10.97
2018-11-20T03:08:00.155Z,10.45
2018-11-20T03:10:23.016Z,11.60
2018-11-20T03:12:42.690Z,11.63
2018-11-20T03:15:05.691Z,11.37
2018-11-20T03:17:28.737Z,12.53
2018-11-20T03:20:01.073Z,12.27
2018-11-20T03:22:24.403Z,10.90
2018-11-20T03:24:49.597Z,11.07
2018-11-20T03:27:12.495Z,11.17
2018-11-20T03:30:28.295Z,11.37
2018-11-20T03:32:51.447Z,10.57
2018-11-20T03:35:20.648Z,11.30
2018-11-20T03:37:44.260Z,10.73
2018-11-20T03:40:12.397Z,11.55
2018-11-20T03:42:42.217Z,10.07
2018-11-20T03:44:57.386Z,11.57
2018-11-20T03:47:12.684Z,10.80
2018-11-20T03:49:42.303Z,11.22
2018-11-20T03:51:54.469Z,10.27
2018-11-20T03:54:18.849Z,11.43
2018-11-20T03:56:44.278Z,10.58
2018-11-20T03:59:07.331Z,10.67
2018-11-20T04:01:40.649Z,10.15
2018-11-20T04:04:07.855Z,10.77
2018-11-20T04:06:31.514Z,11.08
2018-11-20T04:09:01.387Z,10.35
2018-11-20T04:11:28.719Z,10.00
2018-11-20T04:13:40.679Z,9.90
2018-11-20T04:16:03.771Z,11.03
2018-11-20T04:18:26.832Z,9.87
2018-11-20T04:20:56.930Z,11.20
2018-11-20T04:23:30.488Z,10.30
2018-11-20T04:25:45.514Z,10.83
2018-11-20T04:28:08.235Z,10.40
2018-11-20T04:31:18.558Z,10.85
2018-11-20T04:33:59.899Z,10.37
2018-11-20T04:36:24.055Z,9.73
2018-11-20T04:38:37.753Z,11.20
2018-11-20T04:41:11.030Z,10.07
2018-11-20T04:43:33.893Z,10.27
2018-11-20T04:45:50.572Z,10.53
2018-11-20T04:48:06.775Z,10.60
2018-11-20T04:50:46.445Z,10.90
2018-11-20T04:53:14.045Z,10.27
2018-11-20T04:55:32.871Z,10.20
2018-11-20T04:57:55.087Z,10.13
2018-11-20T05:00:22.338Z,10.23
2018-11-20T05:02:49.212Z,10.30
2018-11-20T05:05:05.450Z,10.05
2018-11-20T05:07:28.323Z,10.53
2018-11-20T05:09:51.282Z,9.83
2018-11-20T05:12:30.780Z,10.50
2018-11-20T05:14:53.906Z,10.50
2018-11-20T05:17:06.538Z,10.82
2018-11-20T05:19:29.415Z,10.75
2018-11-20T05:21:52.359Z,11.30
2018-11-20T05:24:25.578Z,10.82
2018-11-20T05:26:41.961Z,11.48
2018-11-20T05:29:04.724Z,10.60
2018-11-20T05:31:26.666Z,11.22
2018-11-20T05:33:59.871Z,14.00
2018-11-20T05:36:30.985Z,14.30
2018-11-20T05:38:50.773Z,12.00
2018-11-20T05:41:04.433Z,11.10
2018-11-20T05:43:27.634Z,11.30
2018-11-20T05:48:27.841Z,12.10
2018-11-20T05:51:08.920Z,11.80
2018-11-20T05:53:30.670Z,11.30
2018-11-20T05:55:59.953Z,11.00
2018-11-20T05:58:20.561Z,10.70
2018-11-20T06:00:48.938Z,10.93
2018-11-20T06:03:02.677Z,10.37
2018-11-20T06:05:15.617Z,11.27
2018-11-20T06:07:37.287Z,11.50
2018-11-20T06:09:59.195Z,11.03
2018-11-20T06:12:20.613Z,11.90
2018-11-20T06:14:43.671Z,10.63
2018-11-20T06:16:59.355Z,10.80
2018-11-20T06:19:28.054Z,10.90
2018-11-20T06:21:57.026Z,10.80
2018-11-20T06:24:18.819Z,11.03
2018-11-20T06:26:41.345Z,10.77
2018-11-20T06:29:19.524Z,11.33
2018-11-20T06:31:41.108Z,11.13
2018-11-20T06:34:02.708Z,10.97
2018-11-20T06:36:24.396Z,10.97
2018-11-20T06:39:02.437Z,11.33
2018-11-20T06:41:40.709Z,10.70
2018-11-20T06:44:04.400Z,11.07
2018-11-20T06:46:18.277Z,11.33
2018-11-20T06:48:45.307Z,10.93
2018-11-20T06:51:04.898Z,10.67
2018-11-20T06:53:27.079Z,10.30
2018-11-20T06:55:59.251Z,10.83
2018-11-20T06:58:32.389Z,10.93
2018-11-20T07:00:48.850Z,10.73
2018-11-20T07:03:14.782Z,11.20
2018-11-20T07:05:40.615Z,11.10
2018-11-20T07:08:02.829Z,11.10
2018-11-20T07:10:41.316Z,11.63
2018-11-20T07:13:08.169Z,10.63
2018-11-20T07:15:35.463Z,10.93
2018-11-20T07:17:47.489Z,10.77
2018-11-20T07:20:09.279Z,10.83
2018-11-20T07:22:31.759Z,11.57
2018-11-20T07:24:54.814Z,11.63
2018-11-20T07:27:29.873Z,11.07
2018-11-20T07:29:51.774Z,11.43
2018-11-20T07:32:17.573Z,11.47
2018-11-20T07:34:43.519Z,11.27
2018-11-20T07:36:58.964Z,11.43
2018-11-20T07:39:24.788Z,11.43
2018-11-20T07:41:56.190Z,11.00
2018-11-20T07:44:21.032Z,11.67
2018-11-20T07:46:35.106Z,10.87
2018-11-20T07:48:56.984Z,11.93
2018-11-20T07:51:18.996Z,14.63
2018-11-20T07:53:32.003Z,12.57
2018-11-20T07:56:07.120Z,11.60
2018-11-20T07:58:36.277Z,11.90
2018-11-20T08:01:10.872Z,12.10
2018-11-20T08:03:32.394Z,13.83
2018-11-20T08:05:54.328Z,16.23
2018-11-20T08:08:26.156Z,12.60
2018-11-20T08:10:49.228Z,11.27
2018-11-20T08:13:17.941Z,14.70
2018-11-20T08:15:39.944Z,11.80
2018-11-20T08:18:05.525Z,12.17
2018-11-20T08:20:31.279Z,11.43
2018-11-20T08:22:49.397Z,12.37
2018-11-20T08:25:15.175Z,11.27
2018-11-20T08:27:37.368Z,11.67
2018-11-20T08:29:50.480Z,12.67
2018-11-20T08:32:22.236Z,11.60
2018-11-20T08:34:47.159Z,11.63
2018-11-20T08:37:07.385Z,11.40
2018-11-20T08:39:29.149Z,12.63
2018-11-20T08:42:00.860Z,11.67
2018-11-20T08:44:34.243Z,12.30
2018-11-20T08:47:09.479Z,12.40
2018-11-20T08:49:31.348Z,11.40
2018-11-20T08:51:54.772Z,11.83
2018-11-20T08:54:23.752Z,12.53
2018-11-20T08:56:56.188Z,11.80
2018-11-20T08:59:11.116Z,12.53
2018-11-20T09:01:26.319Z,12.37
2018-11-20T09:03:50.762Z,13.03
2018-11-20T09:06:12.891Z,12.73
2018-11-20T09:08:34.867Z,12.20
2018-11-20T09:10:49.656Z,12.07
2018-11-20T09:13:11.597Z,11.87
2018-11-20T09:15:49.711Z,11.90
2018-11-20T09:18:11.702Z,12.43
2018-11-20T09:20:43.920Z,11.93
2018-11-20T09:23:12.866Z,11.57
2018-11-20T09:25:25.112Z,10.67
2018-11-20T09:27:40.317Z,12.10
2018-11-20T09:30:00.785Z,11.90
2018-11-20T09:32:16.495Z,10.87
2018-11-20T09:34:38.544Z,12.27
2018-11-20T09:37:00.091Z,11.57
2018-11-20T09:39:30.425Z,11.20
2018-11-20T09:42:19.236Z,10.67
2018-11-20T09:45:25.068Z,11.33
2018-11-20T09:47:47.179Z,12.27
2018-11-20T09:50:18.549Z,10.97
2018-11-20T09:52:40.560Z,11.93
2018-11-20T09:55:02.109Z,11.70
2018-11-20T09:57:37.884Z,11.23
2018-11-20T10:00:01.210Z,12.50
2018-11-20T10:02:22.011Z,11.87
2018-11-20T10:04:43.638Z,11.90
2018-11-20T10:07:24.908Z,11.17
2018-11-20T10:09:56.944Z,11.03
2018-11-20T10:12:19.177Z,11.20
2018-11-20T10:14:42.545Z,10.50
2018-11-20T10:16:56.276Z,11.17
2018-11-20T10:19:18.825Z,11.47
2018-11-20T10:21:40.605Z,10.37
2018-11-20T10:24:08.749Z,11.17
2018-11-20T10:26:37.644Z,11.70
2018-11-20T10:29:03.871Z,11.20
2018-11-20T10:31:26.980Z,11.90
2018-11-20T10:33:59.728Z,11.53
2018-11-20T10:36:14.319Z,11.17
2018-11-20T10:38:52.638Z,11.93
2018-11-20T10:41:24.816Z,11.93
2018-11-20T10:43:44.024Z,11.10
2018-11-20T10:46:06.616Z,11.87
2018-11-20T10:48:47.631Z,11.80
2018-11-20T10:51:09.495Z,11.70
2018-11-20T10:53:31.451Z,12.27
2018-11-20T10:56:00.394Z,11.87
2018-11-20T10:58:15.499Z,11.00
2018-11-20T11:00:37.616Z,12.43
2018-11-20T11:02:59.253Z,11.37
2018-11-20T11:05:21.230Z,12.00
2018-11-20T11:07:50.078Z,12.37
2018-11-20T11:10:11.927Z,12.10
2018-11-20T11:12:39.722Z,12.97
2018-11-20T11:15:01.340Z,12.23
2018-11-20T11:17:14.997Z,11.40
2018-11-20T11:19:37.096Z,11.77
2018-11-20T11:21:52.405Z,11.87
2018-11-20T11:24:14.276Z,12.83
2018-11-20T11:26:47.090Z,12.50
2018-11-20T11:28:58.242Z,12.27
2018-11-20T11:31:20.105Z,12.93
2018-11-20T11:33:41.966Z,11.97
2018-11-20T11:36:03.815Z,12.00
2018-11-20T11:38:26.965Z,11.70
2018-11-20T11:40:55.391Z,11.30
2018-11-20T11:43:33.859Z,11.57
2018-11-20T11:46:06.327Z,11.40
2018-11-20T11:48:37.498Z,11.70
2018-11-20T11:50:59.407Z,13.20
2018-11-20T11:53:29.226Z,12.50
2018-11-20T11:55:53.046Z,13.07
2018-11-20T11:58:12.398Z,12.03
2018-11-20T12:00:39.983Z,12.37
2018-11-20T12:05:22.318Z,12.50
2018-11-20T12:07:47.147Z,13.83
2018-11-20T12:10:11.969Z,13.23
2018-11-20T12:12:23.201Z,12.33
2018-11-20T12:14:45.293Z,12.50
2018-11-20T12:17:14.181Z,13.10
2018-11-20T12:19:37.292Z,13.30
2018-11-20T12:21:57.877Z,13.67
2018-11-20T12:24:23.813Z,13.80
2018-11-20T12:27:02.689Z,12.97
2018-11-20T12:29:25.204Z,13.37
2018-11-20T12:31:50.818Z,13.27
2018-11-20T12:34:19.502Z,13.60
2018-11-20T12:36:36.415Z,13.30
2018-11-20T12:39:00.334Z,13.53
2018-11-20T12:41:15.613Z,15.10
2018-11-20T12:43:38.576Z,15.57
2018-11-20T12:46:00.298Z,16.57
2018-11-20T12:48:23.438Z,15.47
2018-11-20T12:50:46.884Z,16.53
2018-11-20T12:53:21.461Z,17.30
2018-11-20T12:55:51.022Z,16.20
2018-11-20T12:58:13.988Z,14.40
2018-11-20T13:00:34.690Z,14.90
2018-11-20T13:02:54.816Z,16.30
2018-11-20T13:05:22.286Z,15.43
2018-11-20T13:07:57.412Z,15.90
2018-11-20T13:10:20.935Z,14.93
2018-11-20T13:12:41.041Z,15.70
2018-11-20T13:15:02.652Z,15.93
2018-11-20T13:17:22.877Z,14.90
2018-11-20T13:19:44.917Z,15.43
2018-11-20T13:22:06.632Z,14.90
2018-11-20T13:24:29.736Z,15.27
2018-11-20T13:26:52.876Z,15.07
2018-11-20T13:29:09.823Z,15.23
2018-11-20T13:31:31.323Z,16.30
2018-11-20T13:33:47.985Z,15.87
2018-11-20T13:36:08.985Z,14.70
2018-11-20T13:38:33.324Z,15.37
2018-11-20T13:41:49.737Z,15.50
2018-11-20T13:44:24.966Z,14.60
2018-11-20T13:46:49.299Z,16.30
2018-11-20T13:49:18.206Z,14.77
2018-11-20T13:51:53.460Z,15.87
2018-11-20T13:54:22.535Z,15.17
2018-11-20T13:56:35.255Z,15.00
2018-11-20T13:59:16.620Z,15.23
2018-11-20T14:01:51.495Z,14.00
2018-11-20T14:04:23.724Z,14.27
2018-11-20T14:06:38.931Z,13.47
2018-11-20T14:09:10.647Z,14.23
2018-11-20T14:11:36.378Z,13.53
2018-11-20T14:13:53.374Z,13.63
2018-11-20T14:16:23.124Z,13.83
2018-11-20T14:18:52.123Z,14.10
2018-11-20T14:21:24.085Z,13.87
2018-11-20T14:23:59.266Z,12.60
2018-11-20T14:26:21.173Z,10.87
2018-11-20T14:28:44.315Z,10.47
2018-11-20T14:31:01.865Z,10.57
2018-11-20T14:33:24.129Z,11.50
2018-11-20T14:35:46.238Z,8.83
2018-11-20T14:38:08.164Z,10.50
2018-11-20T14:40:46.283Z,12.53
2018-11-20T14:43:12.270Z,11.47
2018-11-20T14:45:35.616Z,8.13
2018-11-20T14:47:57.788Z,10.53
2018-11-20T14:50:29.869Z,9.10
2018-11-20T14:52:53.012Z,8.57
2018-11-20T14:55:19.135Z,7.90
2018-11-20T14:57:54.455Z,7.67
2018-11-20T15:00:16.490Z,8.33
2018-11-20T15:02:39.619Z,7.47
2018-11-20T15:05:18.212Z,7.53
2018-11-20T15:07:40.018Z,7.20
2018-11-20T15:10:05.692Z,6.40
2018-11-20T15:12:43.647Z,6.73
2018-11-20T15:15:09.815Z,7.57
2018-11-20T15:17:31.647Z,5.93
2018-11-20T15:20:09.408Z,5.93
2018-11-20T15:22:24.123Z,5.97
2018-11-20T15:24:42.383Z,5.27
2018-11-20T15:27:11.249Z,5.30
2018-11-20T15:29:46.821Z,5.17
2018-11-20T15:32:08.389Z,4.73
2018-11-20T15:34:46.468Z,5.50
2018-11-20T15:37:24.838Z,5.20
2018-11-20T15:39:47.967Z,4.33
2018-11-20T15:42:09.876Z,4.93
2018-11-20T15:44:31.551Z,4.40
2018-11-20T15:46:48.022Z,4.67
2018-11-20T15:49:09.979Z,5.30
2018-11-20T15:51:40.491Z,4.57
2018-11-20T15:54:02.206Z,4.70
2018-11-20T15:56:15.775Z,4.67
2018-11-20T15:58:34.211Z,5.00
2018-11-20T16:01:09.240Z,4.60
2018-11-20T16:03:50.719Z,4.20
2018-11-20T16:06:12.597Z,4.13
2018-11-20T16:08:41.476Z,4.17
2018-11-20T16:11:16.409Z,5.00
2018-11-20T16:13:38.116Z,5.30
2018-11-20T16:16:00.574Z,4.80
2018-11-20T16:18:32.755Z,4.67
2018-11-20T16:21:04.977Z,6.23
2018-11-20T16:23:40.982Z,4.47
2018-11-20T16:26:04.699Z,6.20
2018-11-20T16:28:37.823Z,5.20
2018-11-20T16:30:59.688Z,4.80
2018-11-20T16:33:24.424Z,5.23
2018-11-20T16:35:49.683Z,5.53
2018-11-20T16:38:12.814Z,5.73
2018-11-20T16:40:41.802Z,6.47
2018-11-20T16:43:17.016Z,6.03
2018-11-20T16:45:46.011Z,5.70
2018-11-20T16:48:27.731Z,31.47
2018-11-20T16:51:00.169Z,11.53
2018-11-20T16:53:21.855Z,6.20
2018-11-20T16:55:37.280Z,5.43
2018-11-20T16:58:00.455Z,5.03
2018-11-20T17:00:23.056Z,4.80
2018-11-20T17:02:39.684Z,6.07
2018-11-20T17:05:18.239Z,5.37
2018-11-20T17:07:39.906Z,4.83
2018-11-20T17:10:09.839Z,4.97
2018-11-20T17:12:33.920Z,10.23
2018-11-20T17:14:59.866Z,7.30
2018-11-20T17:17:21.045Z,9.63
2018-11-20T17:19:39.018Z,6.00
2018-11-20T17:22:02.667Z,4.60
2018-11-20T17:24:37.958Z,4.90
2018-11-20T17:26:59.697Z,4.75
2018-11-20T17:29:19.765Z,5.23
2018-11-20T17:31:45.464Z,6.20
2018-11-20T17:34:08.626Z,5.47
2018-11-20T17:36:32.759Z,5.23
2018-11-20T17:38:59.455Z,5.10
2018-11-20T17:41:25.394Z,5.85
2018-11-20T17:44:00.284Z,5.73
2018-11-20T17:46:26.025Z,5.77
2018-11-20T17:48:45.952Z,5.70
2018-11-20T17:51:07.520Z,6.00
2018-11-20T17:53:29.144Z,6.13
2018-11-20T17:58:10.624Z,6.70
2018-11-20T18:00:26.032Z,6.77
2018-11-20T18:02:47.646Z,6.30
2018-11-20T18:05:09.344Z,5.80
2018-11-20T18:07:35.360Z,6.37
2018-11-20T18:10:10.730Z,6.23
2018-11-20T18:12:43.211Z,6.70
2018-11-20T18:15:06.313Z,6.17
2018-11-20T18:17:38.284Z,6.47
2018-11-20T18:19:59.889Z,6.87
2018-11-20T18:22:32.097Z,7.03
2018-11-20T18:24:55.255Z,8.95
2018-11-20T18:27:18.938Z,19.12
2018-11-20T18:29:40.525Z,11.47
2018-11-20T18:31:56.435Z,8.55
2018-11-20T18:34:09.772Z,8.75
2018-11-20T18:36:31.721Z,7.97
2018-11-20T18:38:53.264Z,8.23
2018-11-20T18:41:25.854Z,8.13
2018-11-20T18:43:54.987Z,8.47
2018-11-20T18:46:16.872Z,8.23
2018-11-20T18:48:38.913Z,8.65
2018-11-20T18:50:53.211Z,8.05
2018-11-20T18:53:16.279Z,7.62
2018-11-20T18:55:31.389Z,8.30
2018-11-20T18:58:00.150Z,8.30
2018-11-20T19:00:22.350Z,8.37
2018-11-20T19:02:33.529Z,7.53
2018-11-20T19:05:03.223Z,8.87
2018-11-20T19:07:19.136Z,8.43
2018-11-20T19:09:40.995Z,8.25
2018-11-20T19:12:03.714Z,8.70
2018-11-20T19:14:31.148Z,8.28
2018-11-20T19:16:48.103Z,8.17
2018-11-20T19:19:18.474Z,8.30
2018-11-20T19:21:40.437Z,8.40
2018-11-20T19:24:15.401Z,8.33
2018-11-20T19:26:37.221Z,8.30
2018-11-20T19:28:57.373Z,8.33
2018-11-20T19:31:19.175Z,8.03
2018-11-20T19:33:49.870Z,7.58
2018-11-20T19:36:03.840Z,7.07
2018-11-20T19:38:25.613Z,8.10
2018-11-20T19:40:54.805Z,8.13
2018-11-20T19:43:16.773Z,8.00
2018-11-20T19:45:39.795Z,7.70
2018-11-20T19:48:01.836Z,8.03
2018-11-20T19:50:27.248Z,7.47
2018-11-20T19:52:50.758Z,7.90
2018-11-20T19:55:05.788Z,9.00
2018-11-20T19:57:27.265Z,8.47
2018-11-20T19:59:49.446Z,8.65
2018-11-20T20:02:11.583Z,9.40
2018-11-20T20:04:33.392Z,8.70
2018-11-20T20:06:58.504Z,9.83
2018-11-20T20:09:20.500Z,9.30
2018-11-20T20:11:48.164Z,9.38
2018-11-20T20:14:02.196Z,10.20
2018-11-20T20:16:18.269Z,8.17
2018-11-20T20:18:40.374Z,11.40
2018-11-20T20:21:03.232Z,9.83
2018-11-20T20:23:35.351Z,8.68
2018-11-20T20:26:13.737Z,8.70
2018-11-20T20:28:49.187Z,8.07
2018-11-20T20:31:11.615Z,8.47
2018-11-20T20:33:39.106Z,7.13
2018-11-20T20:36:01.143Z,7.90
2018-11-20T20:38:18.228Z,7.17
2018-11-20T20:40:41.379Z,7.33
2018-11-20T20:43:16.997Z,8.23
2018-11-20T20:45:40.141Z,6.80
2018-11-20T20:48:02.072Z,6.70
2018-11-20T20:50:29.232Z,7.42
2018-11-20T20:52:52.487Z,7.50
2018-11-20T20:55:18.150Z,7.37
2018-11-20T20:57:43.938Z,7.08
2018-11-20T21:00:06.046Z,8.17
2018-11-20T21:02:40.900Z,7.53
2018-11-20T21:05:01.542Z,7.77
2018-11-20T21:07:27.868Z,7.03
2018-11-20T21:09:40.117Z,6.83
2018-11-20T21:12:15.043Z,7.00
2018-11-20T21:14:37.105Z,7.10
2018-11-20T21:16:59.098Z,6.83
2018-11-20T21:19:21.077Z,6.87
2018-11-20T21:21:47.191Z,6.83
2018-11-20T21:24:12.908Z,6.87
2018-11-20T21:26:28.469Z,7.05
2018-11-20T21:28:54.742Z,7.10
2018-11-20T21:31:16.355Z,7.15
2018-11-20T21:33:34.262Z,6.83
2018-11-20T21:35:56.020Z,6.70
2018-11-20T21:38:17.544Z,6.72
2018-11-20T21:40:39.352Z,6.65
2018-11-20T21:43:01.160Z,7.47
2018-11-20T21:45:24.210Z,6.33
2018-11-20T21:47:56.320Z,6.60
2018-11-20T21:50:14.663Z,6.73
2018-11-20T21:52:56.497Z,6.67
2018-11-20T21:55:18.244Z,6.50
2018-11-20T21:57:41.367Z,6.35
2018-11-20T22:00:04.076Z,7.70
2018-11-20T22:02:42.583Z,6.85
2018-11-20T22:05:04.006Z,6.73
2018-11-20T22:07:26.604Z,6.73
2018-11-20T22:09:48.811Z,5.80
2018-11-20T22:12:11.067Z,6.42
2018-11-20T22:14:33.017Z,6.30
2018-11-20T22:16:56.375Z,6.40
2018-11-20T22:19:18.039Z,7.00
2018-11-20T22:21:33.269Z,6.80
2018-11-20T22:23:50.132Z,7.23
2018-11-20T22:26:15.802Z,7.60
2018-11-20T22:28:37.605Z,7.37
2018-11-20T22:30:50.911Z,7.37
2018-11-20T22:33:19.616Z,7.37
2018-11-20T22:35:48.708Z,7.55
2018-11-20T22:38:12.701Z,6.97
2018-11-20T22:40:41.891Z,8.43
2018-11-20T22:43:13.355Z,6.87
2018-11-20T22:45:54.623Z,8.20
2018-11-20T22:48:16.256Z,8.67
2018-11-20T22:50:54.583Z,7.53
2018-11-20T22:53:16.404Z,7.15
2018-11-20T22:55:45.146Z,8.00
2018-11-20T22:57:58.621Z,7.60
2018-11-20T23:00:21.749Z,9.18
2018-11-20T23:02:45.892Z,8.53
2018-11-20T23:05:04.938Z,8.63
2018-11-20T23:07:22.164Z,7.25
2018-11-20T23:09:26.195Z,8.05
2018-11-20T23:11:30.277Z,8.38
2018-11-20T23:13:34.321Z,8.27
2018-11-20T23:15:38.655Z,8.47
2018-11-20T23:17:42.658Z,7.33
2018-11-20T23:19:46.673Z,8.45
2018-11-20T23:21:50.684Z,9.03
2018-11-20T23:23:54.693Z,9.87
2018-11-20T23:25:58.738Z,8.75
2018-11-20T23:28:02.748Z,8.33
2018-11-20T23:30:12.392Z,9.13
2018-11-20T23:32:16.410Z,9.07
2018-11-20T23:34:20.414Z,8.85
2018-11-20T23:36:24.408Z,9.23
2018-11-20T23:38:28.412Z,8.73
2018-11-20T23:40:32.409Z,7.33
2018-11-20T23:42:40.145Z,8.93
2018-11-20T23:44:41.738Z,8.47
2018-11-20T23:46:45.720Z,8.03
2018-11-20T23:48:49.731Z,7.40
2018-11-20T23:50:55.159Z,8.08
2018-11-20T23:52:59.163Z,7.97
2018-11-20T23:55:03.175Z,7.53
2018-11-20T23:57:07.160Z,7.07
2018-11-20T23:59:11.221Z,7.93
